Terminal Aerodrome Forecast
Issued by NWS

Home | Current Version | Previous Version | Text Only | Print | Product List | Glossary On
Versions: 1 2 3 4 5 6 7 8 9 10 11 12 13 14
000
FTUS44 KEPZ 032344
TAFTCS
TAF
KTCS 032344Z 0400/0424 21010KT P6SM VCTS SCT070CB BKN100
      TEMPO 0400/0402 VRB20G35KT 2SM TSRA BKN040CB
     FM040300 27008KT P6SM VCSH BKN080 OVC120=

USA.gov is the U.S. government's official web portal to all federal, state and local government web resources and services.